Time;durP1;ratioP1;P1;durP2;ratioP2;P2;SDS_P1;SDS_P2;PMS_P1;PMS_P2;Temp;Humidity;BMP_temperature;BMP_pressure;BME280_temperature;BME280_humidity;BME280_pressure;Samples;Min_cycle;Max_cycle;Signal;HPM_P1;HPM_P2
2023/06/27 05:03:37;;;;;;;6.53;1.98;;;19.00;81.40;;;;;;5031604;23;20069;-76
2023/06/27 05:06:06;;;;;;;4.28;1.20;;;19.00;81.90;;;;;;5022926;28;20053;-74
2023/06/27 05:08:34;;;;;;;3.47;1.38;;;19.00;81.40;;;;;;5005419;28;20446;-75
2023/06/27 05:11:00;;;;;;;7.85;1.83;;;19.10;81.40;;;;;;5022842;28;20034;-75
2023/06/27 05:13:26;;;;;;;3.25;1.33;;;19.20;81.10;;;;;;5022599;28;20033;-75
2023/06/27 05:15:51;;;;;;;4.50;1.38;;;19.30;80.60;;;;;;5023252;28;20048;-75
2023/06/27 05:18:17;;;;;;;3.65;1.10;;;19.40;80.60;;;;;;5022383;28;20333;-76
2023/06/27 05:20:44;;;;;;;5.32;1.63;;;19.40;79.80;;;;;;5017004;28;20054;-76
2023/06/27 05:23:10;;;;;;;2.92;1.45;;;19.40;80.00;;;;;;4986172;28;20030;-74
2023/06/27 05:25:36;;;;;;;5.28;1.13;;;19.50;79.60;;;;;;5007414;28;20018;-73
2023/06/27 05:28:02;;;;;;;4.35;1.50;;;19.60;79.60;;;;;;5007504;28;20030;-74
2023/06/27 05:30:29;;;;;;;6.00;1.38;;;19.60;79.20;;;;;;5022283;28;20139;-74
2023/06/27 05:32:55;;;;;;;4.05;1.35;;;19.60;78.80;;;;;;5007086;28;20252;-75
2023/06/27 05:35:22;;;;;;;5.13;1.60;;;19.70;78.90;;;;;;5010638;28;20017;-73
2023/06/27 05:37:48;;;;;;;4.90;1.42;;;19.70;79.30;;;;;;5026604;28;20026;-74
2023/06/27 05:40:13;;;;;;;6.45;1.58;;;19.70;79.30;;;;;;5026350;28;20102;-74
2023/06/27 05:42:40;;;;;;;4.00;1.23;;;19.70;78.80;;;;;;5027007;28;20097;-74
2023/06/27 05:45:06;;;;;;;7.82;2.13;;;19.70;78.50;;;;;;5026530;28;20033;-75
2023/06/27 05:47:32;;;;;;;5.93;1.70;;;19.90;79.40;;;;;;5026460;28;20022;-75
2023/06/27 05:49:58;;;;;;;4.03;1.30;;;19.90;78.40;;;;;;5026667;28;20044;-76
2023/06/27 05:52:24;;;;;;;4.53;1.83;;;20.10;78.10;;;;;;5026302;28;20098;-74
2023/06/27 05:54:53;;;;;;;6.15;2.00;;;20.10;77.70;;;;;;5026277;28;20089;-74
2023/06/27 05:57:18;;;;;;;6.10;1.38;;;20.20;71.00;;;;;;5018972;28;20034;-75
2023/06/27 05:59:44;;;;;;;3.35;1.00;;;20.40;70.20;;;;;;5006534;28;20029;-76
2023/06/27 06:02:10;;;;;;;3.97;1.05;;;20.30;69.70;;;;;;5015210;28;20030;-75
2023/06/27 06:04:36;;;;;;;4.22;1.30;;;20.40;69.80;;;;;;5026404;28;20070;-73
2023/06/27 06:07:03;;;;;;;4.78;1.50;;;20.50;69.60;;;;;;5025966;28;20214;-75
2023/06/27 06:09:30;;;;;;;3.88;1.45;;;20.60;70.00;;;;;;5025866;28;20041;-74
2023/06/27 06:11:56;;;;;;;4.93;1.27;;;20.70;69.60;;;;;;5025826;28;20257;-74
2023/06/27 06:14:22;;;;;;;5.85;1.48;;;20.80;69.40;;;;;;5024423;28;20212;-74
2023/06/27 06:16:48;;;;;;;5.28;1.35;;;20.90;68.80;;;;;;5025754;28;20041;-74
2023/06/27 06:19:14;;;;;;;6.22;1.70;;;20.90;67.70;;;;;;5025187;28;20125;-75
2023/06/27 06:21:40;;;;;;;6.13;1.73;;;20.90;68.20;;;;;;5025766;28;20026;-75
2023/06/27 06:24:08;;;;;;;4.45;1.30;;;21.10;68.60;;;;;;5025612;28;20029;-75
2023/06/27 06:26:35;;;;;;;8.13;1.48;;;21.00;68.90;;;;;;5024127;28;20034;-74
2023/06/27 06:29:04;;;;;;;3.88;1.38;;;21.00;67.70;;;;;;5024281;28;20072;-75
2023/06/27 06:31:30;;;;;;;5.65;1.70;;;21.10;68.10;;;;;;5025274;28;20033;-75
2023/06/27 06:33:57;;;;;;;6.38;1.65;;;21.20;68.00;;;;;;5025307;28;20319;-74
2023/06/27 06:36:23;;;;;;;4.70;1.30;;;21.30;67.00;;;;;;5015281;28;20090;-74
2023/06/27 06:38:49;;;;;;;8.18;1.52;;;21.30;66.20;;;;;;5005573;28;20269;-75
2023/06/27 06:41:15;;;;;;;6.55;1.70;;;21.40;66.60;;;;;;5004222;28;20019;-76
2023/06/27 06:43:41;;;;;;;6.68;1.27;;;21.40;66.60;;;;;;5005726;28;20042;-75
2023/06/27 06:46:07;;;;;;;5.55;1.73;;;21.40;66.00;;;;;;5005840;28;20089;-75
2023/06/27 06:48:32;;;;;;;4.97;1.40;;;21.30;65.60;;;;;;5005278;28;20041;-76
2023/06/27 06:50:58;;;;;;;4.60;0.90;;;21.30;65.10;;;;;;5005571;28;20034;-74
2023/06/27 06:53:24;;;;;;;4.80;1.35;;;21.20;65.40;;;;;;5004631;28;20033;-75
2023/06/27 06:55:50;;;;;;;6.20;1.63;;;21.40;66.00;;;;;;5005733;28;20338;-75
2023/06/27 06:58:16;;;;;;;2.72;0.93;;;21.50;65.90;;;;;;5004912;28;20286;-75
2023/06/27 07:00:41;;;;;;;5.90;1.27;;;21.70;66.00;;;;;;5011102;28;20156;-75
2023/06/27 07:03:10;;;;;;;5.63;1.20;;;21.80;64.80;;;;;;5016330;28;20042;-75
2023/06/27 07:05:36;;;;;;;4.45;1.20;;;22.10;65.30;;;;;;5005163;28;20061;-76
2023/06/27 07:08:06;;;;;;;5.95;1.50;;;22.10;64.50;;;;;;5004276;28;20092;-75
2023/06/27 07:10:32;;;;;;;6.80;1.20;;;22.30;64.00;;;;;;5005005;28;20030;-75
2023/06/27 07:12:59;;;;;;;3.22;1.00;;;22.20;64.30;;;;;;5005172;28;20027;-75
2023/06/27 07:15:29;;;;;;;8.18;1.33;;;22.10;63.80;;;;;;5003289;28;20026;-74
2023/06/27 07:17:55;;;;;;;7.10;1.58;;;22.00;64.20;;;;;;5005120;28;20034;-76
2023/06/27 07:20:22;;;;;;;5.97;1.30;;;22.30;64.10;;;;;;5004054;28;20048;-75
2023/06/27 07:22:48;;;;;;;4.28;1.10;;;22.50;63.00;;;;;;5004643;28;20105;-73
2023/06/27 07:25:14;;;;;;;4.22;1.15;;;22.50;62.60;;;;;;5004874;28;20319;-73
2023/06/27 07:27:41;;;;;;;4.50;1.30;;;22.60;63.30;;;;;;5004097;28;20026;-75
2023/06/27 07:30:07;;;;;;;4.63;1.25;;;22.70;63.30;;;;;;4987292;28;20109;-73
2023/06/27 07:32:33;;;;;;;5.85;1.45;;;22.70;63.30;;;;;;5004041;28;20319;-73
2023/06/27 07:34:59;;;;;;;6.20;1.70;;;22.60;63.10;;;;;;5003634;28;20034;-74
2023/06/27 07:37:24;;;;;;;4.50;1.20;;;22.80;63.40;;;;;;5004218;28;20037;-73
2023/06/27 07:39:50;;;;;;;5.18;1.27;;;23.10;62.80;;;;;;5003103;28;20201;-73
2023/06/27 07:42:17;;;;;;;4.68;1.35;;;23.10;62.10;;;;;;5004472;28;20045;-76
2023/06/27 07:44:43;;;;;;;5.20;1.33;;;23.10;62.00;;;;;;5004448;28;20038;-74
2023/06/27 07:47:09;;;;;;;5.93;1.27;;;23.00;62.40;;;;;;5004102;28;20026;-74
2023/06/27 07:49:37;;;;;;;3.53;1.17;;;23.20;62.30;;;;;;5004936;28;20124;-74
2023/06/27 07:52:05;;;;;;;4.35;1.02;;;23.30;62.40;;;;;;5002953;28;20231;-74
2023/06/27 07:54:32;;;;;;;4.45;1.45;;;23.50;61.70;;;;;;5002797;28;20085;-75
2023/06/27 07:56:58;;;;;;;5.95;1.65;;;23.60;61.20;;;;;;5007997;28;20223;-74
2023/06/27 07:59:24;;;;;;;3.83;1.30;;;23.60;60.40;;;;;;5023213;28;20101;-75
2023/06/27 08:01:51;;;;;;;8.27;1.17;;;23.60;61.10;;;;;;5023608;28;20029;-74
2023/06/27 08:04:16;;;;;;;6.25;1.45;;;23.60;61.40;;;;;;5005808;28;20220;-75
2023/06/27 08:06:42;;;;;;;5.10;1.50;;;24.00;61.30;;;;;;5003511;28;20034;-74
2023/06/27 08:09:08;;;;;;;5.70;1.52;;;24.10;60.50;;;;;;5004047;28;20085;-73
2023/06/27 08:11:34;;;;;;;5.00;1.63;;;23.90;60.20;;;;;;5003915;28;20038;-74
2023/06/27 08:14:01;;;;;;;5.55;1.85;;;24.00;60.30;;;;;;5003736;28;20049;-74
2023/06/27 08:16:27;;;;;;;3.60;1.10;;;24.10;60.40;;;;;;5003525;28;20330;-76
2023/06/27 08:18:52;;;;;;;3.15;1.30;;;24.10;60.60;;;;;;5003692;28;20030;-75
2023/06/27 08:21:19;;;;;;;4.57;1.30;;;24.20;60.00;;;;;;5003514;28;20097;-75
2023/06/27 08:23:44;;;;;;;4.03;1.13;;;24.00;59.70;;;;;;5003739;28;20029;-75
2023/06/27 08:26:18;;;;;;;7.70;1.45;;;24.20;60.00;;;;;;5004012;28;20061;-75
2023/06/27 08:28:44;;;;;;;5.55;1.38;;;24.10;59.70;;;;;;5003233;28;20327;-75
2023/06/27 08:31:11;;;;;;;6.38;1.70;;;24.10;60.20;;;;;;5002398;28;20034;-76
2023/06/27 08:33:37;;;;;;;6.00;1.50;;;24.20;59.80;;;;;;5003130;28;20022;-75
2023/06/27 08:36:03;;;;;;;5.10;1.48;;;24.20;59.80;;;;;;5004150;28;20022;-75
2023/06/27 08:38:29;;;;;;;3.22;1.20;;;24.20;59.50;;;;;;5003246;28;20061;-75
2023/06/27 08:40:55;;;;;;;4.55;1.42;;;24.00;59.80;;;;;;5003517;28;20314;-75
2023/06/27 08:43:23;;;;;;;10.32;2.00;;;23.80;59.80;;;;;;5003182;28;20065;-75
2023/06/27 08:45:52;;;;;;;6.15;1.20;;;23.80;60.00;;;;;;5003450;28;20034;-75
2023/06/27 08:48:17;;;;;;;;;;;24.10;60.00;;;;;;5003838;28;20125;-76
2023/06/27 08:50:44;;;;;;;5.00;1.55;;;24.40;59.50;;;;;;5002865;28;19906;-74
2023/06/27 08:53:17;;;;;;;4.25;1.38;;;24.70;59.10;;;;;;5018953;28;20062;-75
2023/06/27 08:55:55;;;;;;;8.15;1.48;;;24.90;58.40;;;;;;5002682;28;20022;-75
2023/06/27 08:58:27;;;;;;;3.33;1.20;;;25.10;58.80;;;;;;5002870;28;20031;-76
2023/06/27 09:00:54;;;;;;;5.22;1.55;;;25.20;58.80;;;;;;5003123;28;20074;-75
2023/06/27 09:03:20;;;;;;;6.38;1.70;;;25.20;58.50;;;;;;5012754;28;20109;-74
2023/06/27 09:05:48;;;;;;;13.18;3.38;;;25.20;58.30;;;;;;5022756;28;20022;-75
2023/06/27 09:08:14;;;;;;;8.30;1.58;;;25.20;58.40;;;;;;5022813;28;20038;-76
2023/06/27 09:10:42;;;;;;;5.28;1.50;;;25.20;58.20;;;;;;5021099;28;20034;-75
2023/06/27 09:13:09;;;;;;;3.65;1.25;;;25.40;58.20;;;;;;5021460;28;20029;-74
2023/06/27 09:15:34;;;;;;;3.88;1.30;;;25.40;57.20;;;;;;5022479;28;20060;-74
2023/06/27 09:18:00;;;;;;;4.00;1.50;;;25.40;57.10;;;;;;5021958;28;20038;-75
2023/06/27 09:20:26;;;;;;;5.90;1.83;;;25.20;57.50;;;;;;5022521;28;20315;-74
2023/06/27 09:22:55;;;;;;;6.80;3.55;;;25.60;57.70;;;;;;5022984;28;20018;-76
2023/06/27 09:25:24;;;;;;;5.25;1.92;;;25.80;57.90;;;;;;5022854;28;20311;-75
2023/06/27 09:27:50;;;;;;;4.80;1.60;;;26.10;57.00;;;;;;5022937;28;20104;-75
2023/06/27 09:30:17;;;;;;;7.18;1.65;;;26.20;56.90;;;;;;5023289;28;20064;-77
2023/06/27 09:32:55;;;;;;;4.10;1.30;;;26.30;57.30;;;;;;5022613;28;20573;-75
2023/06/27 09:35:21;;;;;;;5.78;1.67;;;26.30;56.20;;;;;;5022961;28;20041;-75
2023/06/27 09:37:48;;;;;;;8.98;1.38;;;26.30;56.30;;;;;;5022265;28;20029;-75
2023/06/27 09:40:25;;;;;;;7.93;1.50;;;26.20;56.50;;;;;;5021318;28;20038;-75
2023/06/27 09:42:55;;;;;;;3.33;1.33;;;26.30;56.30;;;;;;5022444;28;20064;-75
2023/06/27 09:45:24;;;;;;;4.50;1.40;;;26.10;56.10;;;;;;5021393;28;20117;-75
2023/06/27 09:47:51;;;;;;;4.43;1.30;;;26.30;56.40;;;;;;5022318;28;20030;-75
2023/06/27 09:50:18;;;;;;;5.47;1.27;;;26.60;56.10;;;;;;5021512;28;20037;-75
2023/06/27 09:52:54;;;;;;;4.95;1.45;;;26.40;55.50;;;;;;5022137;28;20044;-75
2023/06/27 09:55:20;;;;;;;7.38;1.25;;;26.80;55.40;;;;;;5022275;28;20219;-75
2023/06/27 09:57:49;;;;;;;5.40;1.30;;;27.20;55.10;;;;;;5011395;28;20045;-75
2023/06/27 10:00:21;;;;;;;5.25;1.10;;;27.10;54.80;;;;;;5002559;28;20316;-75
2023/06/27 10:02:48;;;;;;;4.85;1.33;;;27.40;53.80;;;;;;5003266;28;20050;-74
2023/06/27 10:05:15;;;;;;;3.78;1.30;;;27.30;53.80;;;;;;5003364;28;20034;-74
2023/06/27 10:07:42;;;;;;;4.43;1.20;;;27.40;54.30;;;;;;5003399;28;20034;-76
2023/06/27 10:10:08;;;;;;;5.10;1.52;;;27.40;54.60;;;;;;5005692;28;20044;-76
2023/06/27 10:12:34;;;;;;;4.85;1.10;;;27.50;54.00;;;;;;5006189;28;20118;-74
2023/06/27 10:15:00;;;;;;;3.97;1.30;;;27.50;54.20;;;;;;5006216;28;20217;-76
2023/06/27 10:17:28;;;;;;;6.45;1.35;;;27.40;53.80;;;;;;5005826;28;20039;-76
2023/06/27 10:19:54;;;;;;;;;;;27.50;54.20;;;;;;5006458;28;20283;-75
2023/06/27 10:22:22;;;;;;;5.35;1.23;;;27.30;53.50;;;;;;5006180;28;19906;-76
2023/06/27 10:24:51;;;;;;;3.90;1.57;;;27.20;53.70;;;;;;5005510;28;20308;-76
2023/06/27 10:27:21;;;;;;;3.85;1.05;;;27.20;53.20;;;;;;5006144;28;20026;-75
2023/06/27 10:29:47;;;;;;;5.13;1.35;;;27.10;53.80;;;;;;5005838;28;20046;-75
2023/06/27 10:32:20;;;;;;;3.22;1.20;;;27.10;52.90;;;;;;5005888;28;20037;-76
2023/06/27 10:34:46;;;;;;;3.33;1.02;;;26.90;53.60;;;;;;5005957;28;20042;-76
2023/06/27 10:37:24;;;;;;;5.25;1.20;;;27.20;53.80;;;;;;5004904;28;20080;-76
2023/06/27 10:39:58;;;;;;;4.22;1.00;;;27.30;54.00;;;;;;5005568;28;20037;-76
2023/06/27 10:42:23;;;;;;;4.15;1.00;;;27.40;53.50;;;;;;5006317;28;20045;-76
2023/06/27 10:45:09;;;;;;;5.97;1.08;;;27.60;53.10;;;;;;5005496;28;20030;-76
2023/06/27 10:47:42;;;;;;;6.32;1.50;;;27.80;53.20;;;;;;5005486;28;20084;-75
2023/06/27 10:50:13;;;;;;;3.72;0.90;;;28.00;53.20;;;;;;5005541;28;20034;-73
2023/06/27 10:52:40;;;;;;;3.55;1.00;;;28.20;52.30;;;;;;5005256;28;20312;-77
2023/06/27 10:55:15;;;;;;;3.97;1.00;;;28.20;52.20;;;;;;5004626;28;20145;-73
2023/06/27 10:57:43;;;;;;;3.28;1.20;;;28.30;52.30;;;;;;5013219;28;20272;-75
2023/06/27 11:00:13;;;;;;;5.95;1.55;;;28.30;52.10;;;;;;5025095;28;20034;-73
2023/06/27 11:02:43;;;;;;;4.97;1.10;;;28.40;52.10;;;;;;5024074;28;20060;-74
2023/06/27 11:05:16;;;;;;;10.52;1.40;;;28.30;51.50;;;;;;5024921;28;20038;-75
2023/06/27 11:07:57;;;;;;;5.47;1.38;;;28.10;51.60;;;;;;5024547;28;20093;-74
2023/06/27 11:10:29;;;;;;;4.35;1.23;;;27.90;51.50;;;;;;5025055;28;20084;-73
2023/06/27 11:13:15;;;;;;;4.35;0.90;;;27.50;52.20;;;;;;5024619;28;20045;-74
2023/06/27 11:15:44;;;;;;;4.30;1.17;;;27.30;52.60;;;;;;5022640;28;20293;-72
2023/06/27 11:18:18;;;;;;;4.20;1.23;;;27.20;53.20;;;;;;5022643;28;20030;-76
2023/06/27 11:20:45;;;;;;;3.70;1.20;;;26.90;53.60;;;;;;5012645;28;20102;-75
2023/06/27 11:23:15;;;;;;;4.07;1.10;;;26.90;53.60;;;;;;5004456;28;20038;-74
2023/06/27 11:25:43;;;;;;;19.17;2.10;;;26.80;53.60;;;;;;5020230;28;20034;-73
2023/06/27 11:28:11;;;;;;;4.18;1.25;;;27.00;54.00;;;;;;5024553;28;20026;-74
2023/06/27 11:30:37;;;;;;;4.93;1.20;;;27.40;53.50;;;;;;5023743;28;20033;-75
2023/06/27 11:33:03;;;;;;;3.70;1.40;;;27.60;53.00;;;;;;5017242;28;20026;-74
2023/06/27 11:35:31;;;;;;;3.63;1.20;;;27.50;53.00;;;;;;5004389;28;20320;-75
2023/06/27 11:37:56;;;;;;;4.80;1.98;;;27.50;52.50;;;;;;5009209;28;20053;-74
2023/06/27 11:40:27;;;;;;;6.57;1.02;;;27.50;52.30;;;;;;5017397;28;20046;-74
2023/06/27 11:43:05;;;;;;;3.75;1.20;;;27.70;52.40;;;;;;5007110;28;20305;-73
2023/06/27 11:45:32;;;;;;;10.05;1.50;;;28.30;52.40;;;;;;5006897;28;20054;-73
2023/06/27 11:47:59;;;;;;;3.78;1.00;;;28.30;51.80;;;;;;5020039;28;20073;-74
2023/06/27 11:50:24;;;;;;;3.15;1.17;;;29.00;51.20;;;;;;5015553;28;20068;-73
2023/06/27 11:52:52;;;;;;;3.58;1.00;;;29.40;50.20;;;;;;5022308;28;20248;-75
2023/06/27 11:55:18;;;;;;;3.78;1.13;;;29.90;49.60;;;;;;5008929;28;20057;-74
2023/06/27 11:57:46;;;;;;;4.10;1.00;;;30.00;49.60;;;;;;5013711;28;20025;-74
2023/06/27 12:00:19;;;;;;;4.13;1.23;;;30.20;49.10;;;;;;5024026;28;20038;-74
2023/06/27 12:02:56;;;;;;;4.78;1.27;;;30.60;48.80;;;;;;5017639;28;20069;-74
2023/06/27 12:05:24;;;;;;;4.43;1.35;;;30.90;48.20;;;;;;5004337;28;20200;-75
2023/06/27 12:08:04;;;;;;;3.00;1.13;;;30.90;48.40;;;;;;5003344;28;20041;-74
2023/06/27 12:10:50;;;;;;;4.20;1.25;;;30.70;48.50;;;;;;5005849;28;20053;-74
2023/06/27 12:13:15;;;;;;;3.47;1.42;;;30.10;48.80;;;;;;5003941;28;20034;-71
2023/06/27 12:15:47;;;;;;;4.15;1.38;;;29.80;49.30;;;;;;5003738;28;20095;-73
2023/06/27 12:18:23;;;;;;;5.13;1.30;;;29.50;49.30;;;;;;5003528;28;20038;-72
2023/06/27 12:20:51;;;;;;;4.53;1.38;;;29.30;49.60;;;;;;5002969;28;20038;-74
2023/06/27 12:23:16;;;;;;;3.22;1.08;;;29.30;49.40;;;;;;5004002;28;20040;-72
2023/06/27 12:25:42;;;;;;;4.50;1.00;;;29.30;50.10;;;;;;5021418;28;20026;-71
2023/06/27 12:28:08;;;;;;;4.07;1.20;;;29.40;50.10;;;;;;5022186;28;20060;-75
2023/06/27 12:30:34;;;;;;;3.85;1.10;;;29.30;49.80;;;;;;5022695;28;20033;-71
2023/06/27 12:33:01;;;;;;;5.47;1.60;;;29.60;49.70;;;;;;5009297;28;20030;-72
2023/06/27 12:35:26;;;;;;;3.38;1.10;;;30.10;49.20;;;;;;5003793;28;20026;-72
2023/06/27 12:37:52;;;;;;;4.30;1.40;;;30.50;48.80;;;;;;5002994;28;20324;-74
2023/06/27 12:40:22;;;;;;;5.88;1.45;;;30.60;48.50;;;;;;5003523;28;20098;-75
2023/06/27 12:42:52;;;;;;;4.15;1.23;;;30.70;48.40;;;;;;5002837;28;20366;-73
2023/06/27 12:45:18;;;;;;;3.33;1.48;;;30.60;48.30;;;;;;5003530;28;20030;-75
2023/06/27 12:47:45;;;;;;;2.97;0.90;;;30.80;48.60;;;;;;5003536;28;20049;-74
2023/06/27 12:50:13;;;;;;;3.58;1.00;;;31.70;47.80;;;;;;5003891;28;20054;-74
2023/06/27 12:52:39;;;;;;;5.22;1.33;;;32.60;47.40;;;;;;5002718;28;20038;-74
2023/06/27 12:55:06;;;;;;;3.65;1.50;;;32.40;46.70;;;;;;5003568;28;20292;-74
2023/06/27 12:57:32;;;;;;;3.75;1.63;;;32.60;46.80;;;;;;5002858;28;20046;-76
2023/06/27 12:59:59;;;;;;;3.33;1.23;;;33.00;46.20;;;;;;5003090;28;20034;-74
2023/06/27 13:02:26;;;;;;;4.97;1.50;;;33.80;45.60;;;;;;5005740;28;20062;-72
2023/06/27 13:04:51;;;;;;;4.28;1.73;;;35.00;45.40;;;;;;5023486;28;20049;-72
2023/06/27 13:07:19;;;;;;;2.75;1.20;;;34.40;44.50;;;;;;5023084;28;20093;-72
2023/06/27 13:09:45;;;;;;;2.35;1.08;;;35.40;44.80;;;;;;5022481;28;20092;-73
2023/06/27 13:12:11;;;;;;;2.97;1.02;;;36.40;43.50;;;;;;5022476;28;20069;-74
2023/06/27 13:14:40;;;;;;;4.03;1.30;;;36.20;43.30;;;;;;5020774;28;20291;-73
2023/06/27 13:17:06;;;;;;;5.22;1.25;;;35.60;43.50;;;;;;5038141;28;20026;-73
2023/06/27 13:19:31;;;;;;;4.65;1.00;;;34.70;44.10;;;;;;5022260;28;20041;-73
2023/06/27 13:21:59;;;;;;;4.57;1.17;;;33.00;45.00;;;;;;5022536;28;20076;-72
2023/06/27 13:24:25;;;;;;;6.35;1.30;;;32.50;46.50;;;;;;5014276;28;20042;-71
2023/06/27 13:26:52;;;;;;;4.97;1.30;;;31.70;46.50;;;;;;5001606;28;20055;-73
2023/06/27 13:29:17;;;;;;;3.83;1.20;;;30.60;47.60;;;;;;5003081;28;20038;-73
2023/06/27 13:31:43;;;;;;;5.85;1.30;;;30.80;47.90;;;;;;5002075;28;20081;-73
2023/06/27 13:34:09;;;;;;;5.65;1.20;;;31.10;47.00;;;;;;5001053;28;20037;-73
2023/06/27 13:36:35;;;;;;;4.65;1.35;;;31.60;46.70;;;;;;5002303;28;20084;-76
2023/06/27 13:39:00;;;;;;;4.50;1.20;;;32.70;45.40;;;;;;5002750;28;20046;-75
2023/06/27 13:41:30;;;;;;;4.22;1.33;;;33.50;45.00;;;;;;5002641;28;20094;-73
2023/06/27 13:43:56;;;;;;;7.20;1.55;;;34.10;44.20;;;;;;4999826;28;20034;-74
2023/06/27 13:46:22;;;;;;;4.25;1.05;;;34.10;43.40;;;;;;5006745;28;20134;-73
2023/06/27 13:48:47;;;;;;;3.75;1.05;;;32.40;44.50;;;;;;5006109;28;20275;-75
2023/06/27 13:51:13;;;;;;;4.47;1.35;;;31.80;45.70;;;;;;5006890;28;20049;-75
2023/06/27 13:53:39;;;;;;;3.95;1.15;;;31.00;46.20;;;;;;5005182;28;20046;-76
2023/06/27 13:56:05;;;;;;;6.88;1.73;;;31.20;46.70;;;;;;5006424;28;20026;-76
2023/06/27 13:58:31;;;;;;;4.22;1.40;;;31.10;46.20;;;;;;5006666;28;20207;-75
2023/06/27 14:00:59;;;;;;;4.40;1.20;;;30.80;47.00;;;;;;5005614;28;20038;-75
2023/06/27 14:03:26;;;;;;;4.72;1.35;;;31.80;46.10;;;;;;5031842;28;20268;-75
2023/06/27 14:05:52;;;;;;;4.03;1.40;;;31.80;45.80;;;;;;5025671;28;20034;-75
2023/06/27 14:08:21;;;;;;;3.22;1.15;;;33.40;44.20;;;;;;5026202;28;20136;-75
2023/06/27 14:10:48;;;;;;;5.93;1.15;;;34.10;43.80;;;;;;5025503;28;20018;-75
2023/06/27 14:13:14;;;;;;;3.30;1.20;;;34.30;42.90;;;;;;5024840;28;20100;-75
2023/06/27 14:15:39;;;;;;;4.93;1.45;;;35.00;42.30;;;;;;5025314;28;20076;-75
2023/06/27 14:18:05;;;;;;;3.72;1.27;;;34.50;42.20;;;;;;5024722;28;20092;-74
2023/06/27 14:20:31;;;;;;;2.40;1.10;;;35.60;42.30;;;;;;5025740;28;20042;-75
2023/06/27 14:22:59;;;;;;;2.40;1.15;;;34.30;42.30;;;;;;5024344;28;20045;-75
2023/06/27 14:25:29;;;;;;;2.88;0.90;;;35.00;41.80;;;;;;5010075;28;20069;-75
2023/06/27 14:27:55;;;;;;;3.72;1.20;;;35.40;41.60;;;;;;5005482;28;20308;-75
2023/06/27 14:30:21;;;;;;;3.15;1.10;;;36.50;41.50;;;;;;5005804;28;20037;-74
2023/06/27 14:32:49;;;;;;;3.50;1.40;;;36.90;40.80;;;;;;5004133;28;20316;-75
2023/06/27 14:35:16;;;;;;;4.80;1.70;;;37.40;40.60;;;;;;5005550;28;20332;-76
2023/06/27 14:37:42;;;;;;;2.65;1.05;;;37.60;40.20;;;;;;5005654;28;20041;-73
2023/06/27 14:40:12;;;;;;;3.33;1.30;;;38.20;39.70;;;;;;5005832;28;20045;-74
2023/06/27 14:42:38;;;;;;;3.30;1.13;;;38.00;39.40;;;;;;5004041;28;20264;-73
2023/06/27 14:45:05;;;;;;;3.40;1.02;;;37.70;39.70;;;;;;5005702;28;20126;-73
2023/06/27 14:47:34;;;;;;;2.57;1.10;;;37.00;40.00;;;;;;5005485;28;20030;-73
2023/06/27 14:50:04;;;;;;;3.78;1.10;;;36.60;40.40;;;;;;5005625;28;20565;-73
2023/06/27 14:52:30;;;;;;;5.07;1.00;;;35.80;41.00;;;;;;5005424;28;20107;-74
2023/06/27 14:54:56;;;;;;;2.58;1.10;;;35.30;41.30;;;;;;5004965;28;20038;-74
2023/06/27 14:57:22;;;;;;;3.63;1.10;;;35.40;41.30;;;;;;5005552;28;20018;-73
2023/06/27 14:59:48;;;;;;;3.85;0.90;;;35.30;41.40;;;;;;5004509;28;20328;-73
2023/06/27 15:02:14;;;;;;;4.18;1.38;;;35.50;41.00;;;;;;5005117;28;20066;-75
2023/06/27 15:04:40;;;;;;;6.05;1.10;;;35.40;41.40;;;;;;5004677;28;20220;-75
2023/06/27 15:07:06;;;;;;;2.17;0.88;;;34.80;41.70;;;;;;5005207;28;20089;-75
2023/06/27 15:09:32;;;;;;;3.03;1.42;;;33.90;42.10;;;;;;5005363;28;20034;-73
2023/06/27 15:11:57;;;;;;;4.25;1.40;;;33.70;42.30;;;;;;5005006;28;20022;-75
2023/06/27 15:14:23;;;;;;;3.97;1.20;;;33.60;42.20;;;;;;5005214;28;20043;-75
2023/06/27 15:16:49;;;;;;;2.58;1.13;;;32.80;42.70;;;;;;5004882;28;20022;-73
2023/06/27 15:19:14;;;;;;;3.45;1.00;;;32.10;43.40;;;;;;5004945;28;20030;-73
2023/06/27 15:21:40;;;;;;;3.00;1.08;;;31.10;44.20;;;;;;5004567;28;20022;-74
2023/06/27 15:24:06;;;;;;;4.78;1.27;;;30.40;45.50;;;;;;5004946;28;20073;-74
2023/06/27 15:26:32;;;;;;;4.72;1.20;;;29.90;46.70;;;;;;5005038;28;20018;-74
2023/06/27 15:29:01;;;;;;;5.95;1.30;;;29.70;47.10;;;;;;5004193;28;20084;-72
2023/06/27 15:31:27;;;;;;;3.05;1.20;;;29.40;47.30;;;;;;5004827;28;20079;-71
2023/06/27 15:33:53;;;;;;;2.42;1.10;;;29.10;47.90;;;;;;5004064;28;20038;-74
2023/06/27 15:36:19;;;;;;;2.65;1.48;;;28.90;48.00;;;;;;5004809;28;20211;-72
2023/06/27 15:38:47;;;;;;;4.97;1.30;;;28.80;48.60;;;;;;5004123;28;20073;-72
2023/06/27 15:41:13;;;;;;;2.95;1.25;;;28.70;48.50;;;;;;5004209;28;20061;-75
2023/06/27 15:43:39;;;;;;;4.63;1.48;;;28.40;49.10;;;;;;5004299;28;20093;-74
2023/06/27 15:46:05;;;;;;;5.00;1.40;;;28.40;49.00;;;;;;5004383;28;20212;-73
2023/06/27 15:48:30;;;;;;;4.47;2.50;;;28.30;49.40;;;;;;5004553;28;20205;-74
2023/06/27 15:50:59;;;;;;;5.57;1.65;;;28.00;49.60;;;;;;5003845;28;20037;-72
2023/06/27 15:53:25;;;;;;;3.33;1.30;;;28.00;49.90;;;;;;5004905;28;20212;-72
2023/06/27 15:55:51;;;;;;;2.83;1.30;;;27.80;49.70;;;;;;5003797;28;20088;-74
2023/06/27 15:58:17;;;;;;;3.95;1.70;;;27.60;50.10;;;;;;5004032;28;20037;-73
2023/06/27 16:00:42;;;;;;;5.13;1.73;;;27.50;50.60;;;;;;5004225;28;20053;-72
2023/06/27 16:03:09;;;;;;;4.75;1.45;;;27.40;50.60;;;;;;5013269;28;20042;-72
2023/06/27 16:05:35;;;;;;;3.63;1.40;;;27.30;50.80;;;;;;5023894;28;20254;-74
2023/06/27 16:08:01;;;;;;;4.05;1.20;;;27.60;50.40;;;;;;5022878;28;20034;-74
2023/06/27 16:10:26;;;;;;;7.38;1.58;;;27.80;50.40;;;;;;5023328;28;20033;-73
2023/06/27 16:12:52;;;;;;;4.75;1.35;;;28.30;49.80;;;;;;5022886;28;20196;-76
2023/06/27 16:15:18;;;;;;;3.58;1.25;;;28.80;49.20;;;;;;5023846;28;20120;-74
2023/06/27 16:17:46;;;;;;;3.67;1.30;;;30.00;48.00;;;;;;5022733;28;20089;-74
2023/06/27 16:20:12;;;;;;;5.25;1.23;;;30.20;47.60;;;;;;5023301;28;20037;-78
2023/06/27 16:22:37;;;;;;;5.22;2.30;;;29.80;47.70;;;;;;5023229;28;20033;-77
2023/06/27 16:25:04;;;;;;;6.55;2.45;;;29.10;48.60;;;;;;5010178;28;20293;-72
2023/06/27 16:27:30;;;;;;;5.68;1.90;;;29.00;49.00;;;;;;5004139;28;20146;-74
2023/06/27 16:29:55;;;;;;;6.15;1.60;;;28.50;49.40;;;;;;5002285;28;20059;-72
2023/06/27 16:32:21;;;;;;;4.03;1.50;;;28.50;49.90;;;;;;5003512;28;20038;-74
2023/06/27 16:34:47;;;;;;;4.18;1.65;;;28.50;49.90;;;;;;5003074;28;20038;-74
2023/06/27 16:37:12;;;;;;;3.97;1.48;;;28.50;50.00;;;;;;5003451;28;20046;-75
2023/06/27 16:39:38;;;;;;;3.50;1.13;;;28.30;50.20;;;;;;5003230;28;20319;-74
2023/06/27 16:42:07;;;;;;;3.97;1.25;;;28.10;50.30;;;;;;5003465;28;20054;-77
2023/06/27 16:44:33;;;;;;;2.70;1.20;;;27.90;50.40;;;;;;5003885;28;20081;-76
2023/06/27 16:46:59;;;;;;;4.05;1.30;;;27.70;50.80;;;;;;5003177;28;20026;-76
2023/06/27 16:49:26;;;;;;;3.53;1.40;;;27.60;51.40;;;;;;5003794;28;20061;-74
2023/06/27 16:51:52;;;;;;;2.80;1.15;;;28.10;51.00;;;;;;5002992;28;20037;-75
2023/06/27 16:54:20;;;;;;;2.60;0.93;;;28.50;50.50;;;;;;5003588;28;20093;-75
2023/06/27 16:56:46;;;;;;;5.82;1.70;;;29.00;50.10;;;;;;5003175;28;20087;-75
2023/06/27 16:59:12;;;;;;;3.30;1.15;;;29.40;49.30;;;;;;5003270;28;20023;-73
2023/06/27 17:01:38;;;;;;;3.40;0.98;;;29.30;49.00;;;;;;4985278;28;20034;-73
2023/06/27 17:04:03;;;;;;;3.72;1.23;;;29.00;49.40;;;;;;5003251;28;20029;-73
2023/06/27 17:06:29;;;;;;;5.93;1.70;;;29.30;48.90;;;;;;5003326;28;20034;-73
2023/06/27 17:08:55;;;;;;;3.78;1.30;;;29.50;49.00;;;;;;5001807;28;20053;-74
2023/06/27 17:11:20;;;;;;;2.88;1.33;;;29.10;48.90;;;;;;5003268;28;20031;-74
2023/06/27 17:13:46;;;;;;;2.85;1.27;;;28.90;49.40;;;;;;5003175;28;20063;-74
2023/06/27 17:16:12;;;;;;;4.90;1.33;;;29.50;49.10;;;;;;5003028;28;20045;-75
2023/06/27 17:18:37;;;;;;;3.85;1.35;;;29.90;48.70;;;;;;5004185;28;20034;-75
2023/06/27 17:21:03;;;;;;;3.63;1.30;;;30.20;48.00;;;;;;5006143;28;20094;-74
2023/06/27 17:23:29;;;;;;;3.42;1.20;;;30.20;48.10;;;;;;5007028;28;20324;-75
2023/06/27 17:25:55;;;;;;;3.22;1.45;;;29.80;48.60;;;;;;5006147;28;20026;-73
2023/06/27 17:28:21;;;;;;;5.10;1.45;;;29.60;48.60;;;;;;5007248;28;20030;-74
2023/06/27 17:30:47;;;;;;;3.70;1.30;;;29.10;49.10;;;;;;5006657;28;20037;-75
2023/06/27 17:33:12;;;;;;;2.65;1.13;;;28.60;49.70;;;;;;5007110;28;20079;-75
2023/06/27 17:35:38;;;;;;;3.40;1.30;;;28.20;50.30;;;;;;5006888;28;20034;-76
2023/06/27 17:38:04;;;;;;;4.28;1.40;;;27.70;50.80;;;;;;5007278;28;20033;-75
2023/06/27 17:40:29;;;;;;;2.30;1.15;;;27.30;51.40;;;;;;5007051;28;20034;-74
2023/06/27 17:42:55;;;;;;;4.95;1.55;;;26.90;52.20;;;;;;5006712;28;20216;-78
2023/06/27 17:45:21;;;;;;;3.17;1.23;;;26.80;52.70;;;;;;5007001;28;20201;-78
2023/06/27 17:47:51;;;;;;;3.15;1.23;;;26.50;53.10;;;;;;5005445;28;20331;-75
2023/06/27 17:50:16;;;;;;;5.75;1.52;;;26.30;53.50;;;;;;5006765;28;20039;-73